sensor_id;sensor_type;location;lat;lon;timestamp;pressure;altitude;pressure_sealevel;temperature;humidity
72959;BME280;60008;50.826;6.896;2022-12-26T00:01:51;100501.06;;;12.16;100.00
72959;BME280;60008;50.826;6.896;2022-12-26T00:04:37;100503.06;;;12.14;100.00
72959;BME280;60008;50.826;6.896;2022-12-26T00:07:36;100493.91;;;12.17;100.00
72959;BME280;60008;50.826;6.896;2022-12-26T00:10:21;100490.63;;;12.15;100.00
72959;BME280;60008;50.826;6.896;2022-12-26T00:13:06;100488.47;;;12.10;100.00
72959;BME280;60008;50.826;6.896;2022-12-26T00:16:16;100497.47;;;12.09;100.00
72959;BME280;60008;50.826;6.896;2022-12-26T00:19:02;100497.09;;;12.12;100.00
72959;BME280;60008;50.826;6.896;2022-12-26T00:21:47;100501.75;;;12.10;100.00
72959;BME280;60008;50.826;6.896;2022-12-26T00:24:33;100498.84;;;11.97;100.00
72959;BME280;60008;50.826;6.896;2022-12-26T00:27:17;100510.59;;;12.03;100.00
72959;BME280;60008;50.826;6.896;2022-12-26T00:30:03;100509.38;;;12.13;100.00
72959;BME280;60008;50.826;6.896;2022-12-26T00:32:48;100507.25;;;12.09;100.00
72959;BME280;60008;50.826;6.896;2022-12-26T00:35:33;100505.06;;;12.12;100.00
72959;BME280;60008;50.826;6.896;2022-12-26T00:38:18;100507.84;;;12.19;100.00
72959;BME280;60008;50.826;6.896;2022-12-26T00:41:04;100512.72;;;12.07;100.00
72959;BME280;60008;50.826;6.896;2022-12-26T00:43:49;100508.84;;;12.18;100.00
72959;BME280;60008;50.826;6.896;2022-12-26T00:46:34;100511.88;;;12.15;100.00
72959;BME280;60008;50.826;6.896;2022-12-26T00:49:19;100500.34;;;12.00;100.00
72959;BME280;60008;50.826;6.896;2022-12-26T00:52:04;100504.50;;;11.94;100.00
72959;BME280;60008;50.826;6.896;2022-12-26T00:54:49;100500.25;;;11.85;100.00
72959;BME280;60008;50.826;6.896;2022-12-26T00:57:34;100497.53;;;11.70;100.00
72959;BME280;60008;50.826;6.896;2022-12-26T01:00:19;100503.47;;;11.72;100.00
72959;BME280;60008;50.826;6.896;2022-12-26T01:03:08;100496.69;;;12.01;100.00
72959;BME280;60008;50.826;6.896;2022-12-26T01:05:53;100492.75;;;11.88;100.00
72959;BME280;60008;50.826;6.896;2022-12-26T01:08:39;100511.09;;;12.06;100.00
72959;BME280;60008;50.826;6.896;2022-12-26T01:11:24;100510.97;;;12.00;100.00
72959;BME280;60008;50.826;6.896;2022-12-26T01:14:24;100532.47;;;11.82;100.00
72959;BME280;60008;50.826;6.896;2022-12-26T01:17:09;100536.66;;;11.76;100.00
72959;BME280;60008;50.826;6.896;2022-12-26T01:19:55;100544.28;;;11.63;100.00
72959;BME280;60008;50.826;6.896;2022-12-26T01:22:40;100546.00;;;11.56;100.00
72959;BME280;60008;50.826;6.896;2022-12-26T01:25:25;100550.34;;;11.49;100.00
72959;BME280;60008;50.826;6.896;2022-12-26T01:28:10;100549.19;;;11.44;100.00
72959;BME280;60008;50.826;6.896;2022-12-26T01:30:59;100550.69;;;11.46;100.00
72959;BME280;60008;50.826;6.896;2022-12-26T01:33:45;100548.03;;;11.38;100.00
72959;BME280;60008;50.826;6.896;2022-12-26T01:36:30;100559.16;;;11.33;100.00
72959;BME280;60008;50.826;6.896;2022-12-26T01:39:15;100557.28;;;11.50;100.00
72959;BME280;60008;50.826;6.896;2022-12-26T01:42:00;100554.97;;;11.47;100.00
72959;BME280;60008;50.826;6.896;2022-12-26T01:45:20;100551.31;;;11.48;100.00
72959;BME280;60008;50.826;6.896;2022-12-26T01:48:16;100545.00;;;11.57;100.00
72959;BME280;60008;50.826;6.896;2022-12-26T01:51:04;100560.25;;;11.55;100.00
72959;BME280;60008;50.826;6.896;2022-12-26T01:53:53;100562.72;;;11.65;100.00
72959;BME280;60008;50.826;6.896;2022-12-26T01:57:02;100557.44;;;11.57;100.00
72959;BME280;60008;50.826;6.896;2022-12-26T01:59:49;100557.06;;;11.68;100.00
72959;BME280;60008;50.826;6.896;2022-12-26T02:02:35;100556.03;;;11.77;100.00
72959;BME280;60008;50.826;6.896;2022-12-26T02:05:41;100546.28;;;11.61;100.00
72959;BME280;60008;50.826;6.896;2022-12-26T02:08:30;100562.09;;;11.55;100.00
72959;BME280;60008;50.826;6.896;2022-12-26T02:11:51;100573.19;;;11.50;100.00
72959;BME280;60008;50.826;6.896;2022-12-26T02:14:58;100577.50;;;11.59;100.00
72959;BME280;60008;50.826;6.896;2022-12-26T02:17:43;100591.44;;;11.53;100.00
72959;BME280;60008;50.826;6.896;2022-12-26T02:20:35;100580.31;;;11.58;100.00
72959;BME280;60008;50.826;6.896;2022-12-26T02:26:50;100574.50;;;11.62;100.00
72959;BME280;60008;50.826;6.896;2022-12-26T02:32:57;100572.69;;;11.63;100.00
72959;BME280;60008;50.826;6.896;2022-12-26T02:36:03;100572.00;;;11.69;100.00
72959;BME280;60008;50.826;6.896;2022-12-26T02:39:34;100576.31;;;11.70;100.00
72959;BME280;60008;50.826;6.896;2022-12-26T02:46:13;100598.41;;;11.62;100.00
72959;BME280;60008;50.826;6.896;2022-12-26T02:49:22;100595.56;;;11.64;100.00
72959;BME280;60008;50.826;6.896;2022-12-26T02:52:17;100579.97;;;11.69;100.00
72959;BME280;60008;50.826;6.896;2022-12-26T02:55:25;100585.78;;;11.64;100.00
72959;BME280;60008;50.826;6.896;2022-12-26T02:58:37;100587.59;;;11.64;100.00
72959;BME280;60008;50.826;6.896;2022-12-26T03:01:44;100591.44;;;11.53;100.00
72959;BME280;60008;50.826;6.896;2022-12-26T03:04:51;100586.47;;;11.50;100.00
72959;BME280;60008;50.826;6.896;2022-12-26T03:07:57;100597.09;;;11.50;100.00
72959;BME280;60008;50.826;6.896;2022-12-26T03:11:03;100590.47;;;11.46;100.00
72959;BME280;60008;50.826;6.896;2022-12-26T03:14:16;100592.47;;;11.36;100.00
72959;BME280;60008;50.826;6.896;2022-12-26T03:17:05;100600.94;;;11.40;100.00
72959;BME280;60008;50.826;6.896;2022-12-26T03:20:11;100598.28;;;11.31;100.00
72959;BME280;60008;50.826;6.896;2022-12-26T03:23:10;100594.00;;;11.30;100.00
72959;BME280;60008;50.826;6.896;2022-12-26T03:26:03;100596.81;;;11.29;100.00
72959;BME280;60008;50.826;6.896;2022-12-26T03:29:11;100581.09;;;11.19;100.00
72959;BME280;60008;50.826;6.896;2022-12-26T03:32:16;100595.53;;;11.17;100.00
72959;BME280;60008;50.826;6.896;2022-12-26T03:35:11;100600.63;;;11.34;100.00
72959;BME280;60008;50.826;6.896;2022-12-26T03:38:16;100604.75;;;11.45;100.00
72959;BME280;60008;50.826;6.896;2022-12-26T03:41:11;100585.84;;;11.40;100.00
72959;BME280;60008;50.826;6.896;2022-12-26T03:44:46;100592.31;;;11.38;100.00
72959;BME280;60008;50.826;6.896;2022-12-26T03:48:16;100601.44;;;11.43;100.00
72959;BME280;60008;50.826;6.896;2022-12-26T03:54:56;100609.22;;;11.45;100.00
72959;BME280;60008;50.826;6.896;2022-12-26T03:58:21;100607.25;;;11.39;100.00
72959;BME280;60008;50.826;6.896;2022-12-26T04:01:29;100600.44;;;11.36;100.00
72959;BME280;60008;50.826;6.896;2022-12-26T04:04:38;100601.28;;;11.28;100.00
72959;BME280;60008;50.826;6.896;2022-12-26T04:07:50;100597.31;;;11.24;100.00
72959;BME280;60008;50.826;6.896;2022-12-26T04:11:03;100591.50;;;11.29;100.00
72959;BME280;60008;50.826;6.896;2022-12-26T04:14:17;100606.91;;;11.33;100.00
72959;BME280;60008;50.826;6.896;2022-12-26T04:17:39;100609.56;;;11.33;100.00
72959;BME280;60008;50.826;6.896;2022-12-26T04:21:07;100612.22;;;11.25;100.00
72959;BME280;60008;50.826;6.896;2022-12-26T04:24:18;100615.56;;;11.27;100.00
72959;BME280;60008;50.826;6.896;2022-12-26T04:27:26;100615.56;;;11.27;100.00
72959;BME280;60008;50.826;6.896;2022-12-26T04:30:33;100615.91;;;11.24;100.00
72959;BME280;60008;50.826;6.896;2022-12-26T04:33:45;100617.06;;;11.22;100.00
72959;BME280;60008;50.826;6.896;2022-12-26T04:36:57;100628.34;;;11.16;100.00
72959;BME280;60008;50.826;6.896;2022-12-26T04:40:05;100640.44;;;11.18;100.00
72959;BME280;60008;50.826;6.896;2022-12-26T04:43:11;100633.78;;;11.22;100.00
72959;BME280;60008;50.826;6.896;2022-12-26T04:46:40;100623.34;;;11.21;100.00
72959;BME280;60008;50.826;6.896;2022-12-26T04:49:25;100622.84;;;11.25;100.00
72959;BME280;60008;50.826;6.896;2022-12-26T04:52:30;100636.13;;;11.17;100.00
72959;BME280;60008;50.826;6.896;2022-12-26T04:55:34;100633.31;;;11.11;100.00
72959;BME280;60008;50.826;6.896;2022-12-26T04:58:20;100637.28;;;11.07;100.00
72959;BME280;60008;50.826;6.896;2022-12-26T05:01:08;100629.50;;;11.05;100.00
72959;BME280;60008;50.826;6.896;2022-12-26T05:04:13;100622.84;;;11.01;100.00
72959;BME280;60008;50.826;6.896;2022-12-26T05:07:23;100630.34;;;10.98;100.00
72959;BME280;60008;50.826;6.896;2022-12-26T05:10:28;100638.94;;;10.92;100.00
72959;BME280;60008;50.826;6.896;2022-12-26T05:13:13;100649.38;;;10.85;100.00
72959;BME280;60008;50.826;6.896;2022-12-26T05:15:58;100649.03;;;10.80;100.00
72959;BME280;60008;50.826;6.896;2022-12-26T05:19:01;100659.00;;;10.78;100.00
72959;BME280;60008;50.826;6.896;2022-12-26T05:22:05;100665.75;;;10.64;100.00
72959;BME280;60008;50.826;6.896;2022-12-26T05:25:14;100662.25;;;10.56;100.00
72959;BME280;60008;50.826;6.896;2022-12-26T05:28:20;100661.25;;;10.41;100.00
72959;BME280;60008;50.826;6.896;2022-12-26T05:31:23;100672.28;;;10.28;100.00
72959;BME280;60008;50.826;6.896;2022-12-26T05:34:15;100682.69;;;10.22;100.00
72959;BME280;60008;50.826;6.896;2022-12-26T05:37:04;100669.91;;;10.17;100.00
72959;BME280;60008;50.826;6.896;2022-12-26T05:39:49;100684.59;;;10.11;100.00
72959;BME280;60008;50.826;6.896;2022-12-26T05:42:34;100695.56;;;10.16;100.00
72959;BME280;60008;50.826;6.896;2022-12-26T05:45:20;100686.50;;;10.19;100.00
72959;BME280;60008;50.826;6.896;2022-12-26T05:48:05;100684.19;;;10.24;100.00
72959;BME280;60008;50.826;6.896;2022-12-26T05:50:50;100699.03;;;10.17;100.00
72959;BME280;60008;50.826;6.896;2022-12-26T05:53:35;100691.28;;;10.15;100.00
72959;BME280;60008;50.826;6.896;2022-12-26T05:56:20;100709.16;;;10.13;100.00
72959;BME280;60008;50.826;6.896;2022-12-26T05:59:05;100717.81;;;10.06;100.00
72959;BME280;60008;50.826;6.896;2022-12-26T06:01:50;100742.44;;;9.98;100.00
72959;BME280;60008;50.826;6.896;2022-12-26T06:04:35;100740.09;;;9.95;100.00
72959;BME280;60008;50.826;6.896;2022-12-26T06:07:20;100737.44;;;9.95;100.00
72959;BME280;60008;50.826;6.896;2022-12-26T06:10:05;100737.94;;;9.91;100.00
72959;BME280;60008;50.826;6.896;2022-12-26T06:12:51;100759.72;;;9.85;100.00
72959;BME280;60008;50.826;6.896;2022-12-26T06:15:37;100765.19;;;9.83;100.00
72959;BME280;60008;50.826;6.896;2022-12-26T06:18:23;100760.34;;;9.79;100.00
72959;BME280;60008;50.826;6.896;2022-12-26T06:21:14;100765.13;;;9.75;100.00
72959;BME280;60008;50.826;6.896;2022-12-26T06:24:00;100777.66;;;9.73;100.00
72959;BME280;60008;50.826;6.896;2022-12-26T06:26:45;100788.78;;;9.77;100.00
72959;BME280;60008;50.826;6.896;2022-12-26T06:29:30;100786.19;;;9.85;100.00
72959;BME280;60008;50.826;6.896;2022-12-26T06:32:15;100769.84;;;9.89;100.00
72959;BME280;60008;50.826;6.896;2022-12-26T06:35:00;100764.72;;;9.88;100.00
72959;BME280;60008;50.826;6.896;2022-12-26T06:37:45;100751.78;;;9.85;100.00
72959;BME280;60008;50.826;6.896;2022-12-26T06:40:30;100748.31;;;9.84;100.00
72959;BME280;60008;50.826;6.896;2022-12-26T06:43:15;100760.38;;;9.87;100.00
72959;BME280;60008;50.826;6.896;2022-12-26T06:46:02;100747.31;;;9.85;100.00
72959;BME280;60008;50.826;6.896;2022-12-26T06:48:47;100746.34;;;9.86;100.00
72959;BME280;60008;50.826;6.896;2022-12-26T06:51:33;100737.03;;;9.82;100.00
72959;BME280;60008;50.826;6.896;2022-12-26T06:54:19;100738.19;;;9.80;100.00
72959;BME280;60008;50.826;6.896;2022-12-26T06:57:04;100749.91;;;9.77;100.00
72959;BME280;60008;50.826;6.896;2022-12-26T06:59:49;100747.28;;;9.77;100.00
72959;BME280;60008;50.826;6.896;2022-12-26T07:02:35;100744.94;;;9.74;100.00
72959;BME280;60008;50.826;6.896;2022-12-26T07:05:20;100757.34;;;9.74;100.00
72959;BME280;60008;50.826;6.896;2022-12-26T07:08:05;100757.56;;;9.80;100.00
72959;BME280;60008;50.826;6.896;2022-12-26T07:10:51;100741.69;;;9.80;100.00
72959;BME280;60008;50.826;6.896;2022-12-26T07:13:36;100746.59;;;9.75;100.00
72959;BME280;60008;50.826;6.896;2022-12-26T07:16:21;100750.00;;;9.68;100.00
72959;BME280;60008;50.826;6.896;2022-12-26T07:19:09;100754.63;;;9.66;100.00
72959;BME280;60008;50.826;6.896;2022-12-26T07:21:55;100765.88;;;9.68;100.00
72959;BME280;60008;50.826;6.896;2022-12-26T07:24:40;100762.13;;;9.70;100.00
72959;BME280;60008;50.826;6.896;2022-12-26T07:27:25;100761.59;;;9.67;100.00
72959;BME280;60008;50.826;6.896;2022-12-26T07:30:10;100769.91;;;9.72;100.00
72959;BME280;60008;50.826;6.896;2022-12-26T07:32:55;100773.00;;;9.67;100.00
72959;BME280;60008;50.826;6.896;2022-12-26T07:35:40;100783.28;;;9.70;100.00
72959;BME280;60008;50.826;6.896;2022-12-26T07:38:26;100785.09;;;9.70;100.00
72959;BME280;60008;50.826;6.896;2022-12-26T07:41:11;100790.53;;;9.68;100.00
72959;BME280;60008;50.826;6.896;2022-12-26T07:44:15;100795.16;;;9.66;100.00
72959;BME280;60008;50.826;6.896;2022-12-26T07:47:00;100810.00;;;9.59;100.00
72959;BME280;60008;50.826;6.896;2022-12-26T07:49:45;100810.13;;;9.57;100.00
72959;BME280;60008;50.826;6.896;2022-12-26T07:52:30;100815.22;;;9.51;100.00
72959;BME280;60008;50.826;6.896;2022-12-26T07:55:16;100831.22;;;9.49;100.00
72959;BME280;60008;50.826;6.896;2022-12-26T07:58:01;100822.16;;;9.52;100.00
72959;BME280;60008;50.826;6.896;2022-12-26T08:00:46;100837.34;;;9.50;100.00
72959;BME280;60008;50.826;6.896;2022-12-26T08:03:32;100843.97;;;9.54;100.00
72959;BME280;60008;50.826;6.896;2022-12-26T08:06:17;100827.59;;;9.50;100.00
72959;BME280;60008;50.826;6.896;2022-12-26T08:09:04;100837.34;;;9.50;100.00
72959;BME280;60008;50.826;6.896;2022-12-26T08:11:49;100821.31;;;9.51;100.00
72959;BME280;60008;50.826;6.896;2022-12-26T08:14:36;100827.13;;;9.55;100.00
72959;BME280;60008;50.826;6.896;2022-12-26T08:17:21;100829.78;;;9.55;100.00
72959;BME280;60008;50.826;6.896;2022-12-26T08:20:06;100834.78;;;9.58;100.00
72959;BME280;60008;50.826;6.896;2022-12-26T08:22:51;100833.63;;;9.61;100.00
72959;BME280;60008;50.826;6.896;2022-12-26T08:25:37;100819.66;;;9.68;100.00
72959;BME280;60008;50.826;6.896;2022-12-26T08:28:22;100814.34;;;9.68;100.00
72959;BME280;60008;50.826;6.896;2022-12-26T08:31:08;100816.16;;;9.68;100.00
72959;BME280;60008;50.826;6.896;2022-12-26T08:33:55;100815.78;;;9.80;100.00
72959;BME280;60008;50.826;6.896;2022-12-26T08:36:41;100803.22;;;9.82;100.00
72959;BME280;60008;50.826;6.896;2022-12-26T08:39:26;100807.06;;;9.88;100.00
72959;BME280;60008;50.826;6.896;2022-12-26T08:42:11;100814.72;;;9.91;100.00
72959;BME280;60008;50.826;6.896;2022-12-26T08:44:56;100805.69;;;10.01;100.00
72959;BME280;60008;50.826;6.896;2022-12-26T08:47:41;100805.69;;;10.01;100.00
72959;BME280;60008;50.826;6.896;2022-12-26T08:50:26;100805.16;;;10.15;100.00
72959;BME280;60008;50.826;6.896;2022-12-26T08:53:11;100804.88;;;10.09;100.00
72959;BME280;60008;50.826;6.896;2022-12-26T08:55:56;100804.31;;;10.15;100.00
72959;BME280;60008;50.826;6.896;2022-12-26T08:58:42;100814.72;;;10.16;100.00
72959;BME280;60008;50.826;6.896;2022-12-26T09:01:29;100813.28;;;10.22;100.00
72959;BME280;60008;50.826;6.896;2022-12-26T09:04:14;100827.25;;;10.32;100.00
72959;BME280;60008;50.826;6.896;2022-12-26T09:06:59;100829.56;;;10.27;100.00
72959;BME280;60008;50.826;6.896;2022-12-26T09:09:45;100827.13;;;10.42;100.00
72959;BME280;60008;50.826;6.896;2022-12-26T09:12:31;100816.13;;;10.54;100.00
72959;BME280;60008;50.826;6.896;2022-12-26T09:15:16;100818.66;;;10.64;100.00
72959;BME280;60008;50.826;6.896;2022-12-26T09:18:01;100820.66;;;10.70;100.00
72959;BME280;60008;50.826;6.896;2022-12-26T09:20:45;100825.63;;;10.65;100.00
72959;BME280;60008;50.826;6.896;2022-12-26T09:23:31;100821.84;;;10.75;100.00
72959;BME280;60008;50.826;6.896;2022-12-26T09:26:18;100818.22;;;10.85;100.00
72959;BME280;60008;50.826;6.896;2022-12-26T09:29:04;100816.09;;;10.88;100.00
72959;BME280;60008;50.826;6.896;2022-12-26T09:31:49;100806.16;;;10.98;100.00
72959;BME280;60008;50.826;6.896;2022-12-26T09:34:34;100822.06;;;10.90;100.00
72959;BME280;60008;50.826;6.896;2022-12-26T09:37:19;100824.56;;;10.92;100.00
72959;BME280;60008;50.826;6.896;2022-12-26T09:40:04;100831.03;;;10.97;100.00
72959;BME280;60008;50.826;6.896;2022-12-26T09:43:08;100840.31;;;11.01;100.00
72959;BME280;60008;50.826;6.896;2022-12-26T09:46:10;100837.38;;;11.12;100.00
72959;BME280;60008;50.826;6.896;2022-12-26T09:49:08;100846.19;;;11.21;100.00
72959;BME280;60008;50.826;6.896;2022-12-26T09:51:57;100839.88;;;11.14;100.00
72959;BME280;60008;50.826;6.896;2022-12-26T09:54:53;100849.81;;;11.12;100.00
72959;BME280;60008;50.826;6.896;2022-12-26T09:57:47;100846.84;;;11.15;100.00
72959;BME280;60008;50.826;6.896;2022-12-26T10:00:44;100856.25;;;11.09;100.00
72959;BME280;60008;50.826;6.896;2022-12-26T10:03:37;100860.09;;;11.15;100.00
72959;BME280;60008;50.826;6.896;2022-12-26T10:06:25;100854.13;;;11.13;100.00
72959;BME280;60008;50.826;6.896;2022-12-26T10:12:32;100837.22;;;11.14;100.00
72959;BME280;60008;50.826;6.896;2022-12-26T10:15:37;100831.94;;;11.14;100.00
72959;BME280;60008;50.826;6.896;2022-12-26T10:21:41;100841.56;;;11.31;100.00
72959;BME280;60008;50.826;6.896;2022-12-26T10:24:32;100840.25;;;11.35;100.00
72959;BME280;60008;50.826;6.896;2022-12-26T10:27:19;100841.41;;;11.32;100.00
72959;BME280;60008;50.826;6.896;2022-12-26T10:30:24;100846.75;;;11.41;100.00
72959;BME280;60008;50.826;6.896;2022-12-26T10:33:17;100859.16;;;11.40;100.00
72959;BME280;60008;50.826;6.896;2022-12-26T10:36:04;100846.91;;;11.47;100.00
72959;BME280;60008;50.826;6.896;2022-12-26T10:38:51;100852.22;;;11.63;100.00
72959;BME280;60008;50.826;6.896;2022-12-26T10:41:41;100845.41;;;11.53;100.00
72959;BME280;60008;50.826;6.896;2022-12-26T10:44:28;100844.59;;;11.52;100.00
72959;BME280;60008;50.826;6.896;2022-12-26T10:47:29;100845.94;;;11.56;100.00
72959;BME280;60008;50.826;6.896;2022-12-26T10:50:19;100851.56;;;11.53;100.00
72959;BME280;60008;50.826;6.896;2022-12-26T10:53:12;100841.97;;;11.60;100.00
72959;BME280;60008;50.826;6.896;2022-12-26T10:55:59;100839.97;;;11.62;100.00
72959;BME280;60008;50.826;6.896;2022-12-26T10:59:07;100842.63;;;11.54;100.00
72959;BME280;60008;50.826;6.896;2022-12-26T11:02:11;100848.06;;;11.61;100.00
72959;BME280;60008;50.826;6.896;2022-12-26T11:05:12;100842.13;;;11.59;100.00
72959;BME280;60008;50.826;6.896;2022-12-26T11:11:18;100842.13;;;11.59;100.00
72959;BME280;60008;50.826;6.896;2022-12-26T11:14:04;100844.09;;;11.57;100.00
72959;BME280;60008;50.826;6.896;2022-12-26T11:16:49;100849.09;;;11.52;100.00
72959;BME280;60008;50.826;6.896;2022-12-26T11:19:37;100843.59;;;11.53;100.00
72959;BME280;60008;50.826;6.896;2022-12-26T11:22:27;100836.16;;;11.57;100.00
72959;BME280;60008;50.826;6.896;2022-12-26T11:25:26;100832.47;;;11.58;100.00
72959;BME280;60008;50.826;6.896;2022-12-26T11:28:24;100832.31;;;11.51;100.00
72959;BME280;60008;50.826;6.896;2022-12-26T11:31:20;100831.16;;;11.62;100.00
72959;BME280;60008;50.826;6.896;2022-12-26T11:34:14;100830.00;;;11.56;100.00
72959;BME280;60008;50.826;6.896;2022-12-26T11:37:02;100828.50;;;11.62;100.00
72959;BME280;60008;50.826;6.896;2022-12-26T11:39:49;100841.81;;;11.70;100.00
72959;BME280;60008;50.826;6.896;2022-12-26T11:42:35;100830.22;;;11.87;100.00
72959;BME280;60008;50.826;6.896;2022-12-26T11:45:23;100850.31;;;11.81;100.00
72959;BME280;60008;50.826;6.896;2022-12-26T11:48:22;100840.84;;;11.87;100.00
72959;BME280;60008;50.826;6.896;2022-12-26T11:51:08;100848.94;;;11.85;100.00
72959;BME280;60008;50.826;6.896;2022-12-26T11:54:12;100844.94;;;11.65;100.00
72959;BME280;60008;50.826;6.896;2022-12-26T11:57:29;100855.38;;;11.67;100.00
72959;BME280;60008;50.826;6.896;2022-12-26T12:00:17;100855.56;;;11.57;100.00
72959;BME280;60008;50.826;6.896;2022-12-26T12:03:12;100851.41;;;11.47;100.00
72959;BME280;60008;50.826;6.896;2022-12-26T12:12:24;100848.06;;;11.53;100.00
72959;BME280;60008;50.826;6.896;2022-12-26T12:15:22;100842.66;;;11.78;100.00
72959;BME280;60008;50.826;6.896;2022-12-26T12:18:18;100834.03;;;11.76;100.00
72959;BME280;60008;50.826;6.896;2022-12-26T12:21:15;100832.03;;;11.70;100.00
72959;BME280;60008;50.826;6.896;2022-12-26T12:27:46;100843.50;;;11.71;100.00
72959;BME280;60008;50.826;6.896;2022-12-26T12:30:49;100832.69;;;11.80;100.00
72959;BME280;60008;50.826;6.896;2022-12-26T12:33:52;100830.53;;;11.76;100.00
72959;BME280;60008;50.826;6.896;2022-12-26T12:48:59;100841.91;;;11.44;100.00
72959;BME280;60008;50.826;6.896;2022-12-26T12:58:23;100833.44;;;11.24;100.00
72959;BME280;60008;50.826;6.896;2022-12-26T13:01:26;100849.34;;;11.16;100.00
72959;BME280;60008;50.826;6.896;2022-12-26T13:04:17;100848.50;;;11.16;100.00
72959;BME280;60008;50.826;6.896;2022-12-26T13:07:09;100852.31;;;11.13;100.00
72959;BME280;60008;50.826;6.896;2022-12-26T13:10:03;100853.16;;;11.22;100.00
72959;BME280;60008;50.826;6.896;2022-12-26T13:12:50;100854.31;;;11.19;100.00
72959;BME280;60008;50.826;6.896;2022-12-26T13:15:43;100850.47;;;11.06;100.00
72959;BME280;60008;50.826;6.896;2022-12-26T13:18:35;100850.91;;;10.93;100.00
72959;BME280;60008;50.826;6.896;2022-12-26T13:21:22;100848.78;;;10.97;100.00
72959;BME280;60008;50.826;6.896;2022-12-26T13:24:27;100852.53;;;10.86;100.00
72959;BME280;60008;50.826;6.896;2022-12-26T13:27:25;100848.06;;;10.87;100.00
72959;BME280;60008;50.826;6.896;2022-12-26T13:30:13;100850.69;;;10.79;100.00
72959;BME280;60008;50.826;6.896;2022-12-26T13:32:59;100834.13;;;10.85;100.00
72959;BME280;60008;50.826;6.896;2022-12-26T13:35:58;100843.41;;;10.81;100.00
72959;BME280;60008;50.826;6.896;2022-12-26T13:41:47;100843.06;;;10.75;100.00
72959;BME280;60008;50.826;6.896;2022-12-26T13:44:52;100875.53;;;10.52;100.00
72959;BME280;60008;50.826;6.896;2022-12-26T13:47:38;100904.25;;;9.95;100.00
72959;BME280;60008;50.826;6.896;2022-12-26T13:53:40;100941.41;;;9.41;100.00
72959;BME280;60008;50.826;6.896;2022-12-26T13:59:23;100951.94;;;8.96;100.00
72959;BME280;60008;50.826;6.896;2022-12-26T14:02:30;100939.69;;;8.95;100.00
72959;BME280;60008;50.826;6.896;2022-12-26T14:12:34;100940.88;;;8.73;100.00
72959;BME280;60008;50.826;6.896;2022-12-26T14:18:55;100944.91;;;8.68;100.00
72959;BME280;60008;50.826;6.896;2022-12-26T14:27:54;100969.56;;;8.59;100.00
72959;BME280;60008;50.826;6.896;2022-12-26T14:30:58;100983.06;;;8.56;100.00
72959;BME280;60008;50.826;6.896;2022-12-26T14:34:20;100982.63;;;8.60;100.00
72959;BME280;60008;50.826;6.896;2022-12-26T14:43:09;101001.28;;;8.59;100.00
72959;BME280;60008;50.826;6.896;2022-12-26T14:45:55;101014.88;;;8.54;100.00
72959;BME280;60008;50.826;6.896;2022-12-26T14:48:46;101010.00;;;8.59;100.00
72959;BME280;60008;50.826;6.896;2022-12-26T14:51:35;101010.28;;;8.56;100.00
72959;BME280;60008;50.826;6.896;2022-12-26T14:57:42;101021.84;;;8.55;100.00
72959;BME280;60008;50.826;6.896;2022-12-26T15:00:28;101026.16;;;8.47;100.00
72959;BME280;60008;50.826;6.896;2022-12-26T15:03:24;101012.53;;;8.42;100.00
72959;BME280;60008;50.826;6.896;2022-12-26T15:15:37;101013.38;;;8.32;100.00
72959;BME280;60008;50.826;6.896;2022-12-26T15:19:04;101017.91;;;8.21;100.00
72959;BME280;60008;50.826;6.896;2022-12-26T15:25:09;101032.81;;;8.12;100.00
72959;BME280;60008;50.826;6.896;2022-12-26T15:28:17;101036.69;;;8.08;100.00
72959;BME280;60008;50.826;6.896;2022-12-26T15:37:56;101070.19;;;8.17;100.00
72959;BME280;60008;50.826;6.896;2022-12-26T15:40:59;101069.19;;;8.09;100.00
72959;BME280;60008;50.826;6.896;2022-12-26T15:43:58;101073.63;;;8.08;100.00
72959;BME280;60008;50.826;6.896;2022-12-26T15:47:09;101076.13;;;8.00;100.00
72959;BME280;60008;50.826;6.896;2022-12-26T16:03:13;101109.00;;;7.87;100.00
72959;BME280;60008;50.826;6.896;2022-12-26T16:06:48;101128.88;;;7.91;100.00
72959;BME280;60008;50.826;6.896;2022-12-26T16:09:45;101120.13;;;7.90;100.00
72959;BME280;60008;50.826;6.896;2022-12-26T16:12:32;101128.84;;;7.81;100.00
72959;BME280;60008;50.826;6.896;2022-12-26T16:15:19;101127.72;;;7.84;100.00
72959;BME280;60008;50.826;6.896;2022-12-26T16:18:19;101127.16;;;7.80;100.00
72959;BME280;60008;50.826;6.896;2022-12-26T16:21:05;101128.72;;;7.83;100.00
72959;BME280;60008;50.826;6.896;2022-12-26T16:24:10;101135.66;;;7.84;100.00
72959;BME280;60008;50.826;6.896;2022-12-26T16:26:59;101139.38;;;7.81;100.00
72959;BME280;60008;50.826;6.896;2022-12-26T16:29:48;101157.69;;;7.73;100.00
72959;BME280;60008;50.826;6.896;2022-12-26T16:32:36;101155.75;;;7.75;100.00
72959;BME280;60008;50.826;6.896;2022-12-26T16:35:28;101166.66;;;7.61;100.00
72959;BME280;60008;50.826;6.896;2022-12-26T16:38:15;101160.63;;;7.49;100.00
72959;BME280;60008;50.826;6.896;2022-12-26T16:41:17;101162.69;;;7.46;100.00
72959;BME280;60008;50.826;6.896;2022-12-26T16:44:30;101159.78;;;7.49;100.00
72959;BME280;60008;50.826;6.896;2022-12-26T16:47:15;101174.72;;;7.39;100.00
72959;BME280;60008;50.826;6.896;2022-12-26T16:50:03;101177.47;;;7.37;100.00
72959;BME280;60008;50.826;6.896;2022-12-26T16:52:48;101188.03;;;7.37;100.00
72959;BME280;60008;50.826;6.896;2022-12-26T16:55:35;101184.09;;;7.32;100.00
72959;BME280;60008;50.826;6.896;2022-12-26T16:58:24;101181.16;;;7.25;100.00